DW9246 Weather Reports


Display with metric or nautical units.
time (UTC)temp
F
wind
direction
speed
MPH
gust
MPH
rain 1hr
in
rain 24hr
in
rain mn
in
humidity
%
barometer
mb
20200226203028 56 326 16.0 27.0 0.00 0.02 0.02 35 1017.0
20200226202027 56 332 20.0 35.0 0.00 0.02 0.02 34 1016.9
20200226201028 56 338 20.0 34.0 0.00 0.02 0.02 32 1016.8
20200226200028 56 330 20.0 32.0 0.00 0.02 0.02 33 1016.9
20200226195027 55 326 21.0 37.0 0.00 0.02 0.02 37 1017.0
20200226194027 54 324 20.0 34.0 0.00 0.02 0.02 41 1017.0
20200226193028 54 326 21.0 34.0 0.00 0.02 0.02 41 1016.9
20200226192027 54 325 20.0 39.0 0.00 0.02 0.02 41 1016.9
20200226191027 54 321 22.0 33.0 0.00 0.02 0.02 41 1016.8
20200226190027 55 321 21.0 33.0 0.00 0.02 0.02 41 1016.8
20200226185029 55 320 23.0 39.0 0.00 0.02 0.02 42 1016.7
20200226184027 54 317 20.0 31.0 0.00 0.02 0.02 43 1016.7
20200226183027 55 319 22.0 35.0 0.00 0.02 0.02 42 1016.4
20200226182027 55 315 24.0 39.0 0.00 0.02 0.02 43 1016.3
20200226181027 55 318 24.0 40.0 0.00 0.02 0.02 44 1015.9
20200226180027 55 317 24.0 47.0 0.00 0.02 0.02 43 1015.7
20200226175027 55 317 23.0 39.0 0.00 0.02 0.02 42 1015.5
20200226174027 56 317 19.0 32.0 0.00 0.02 0.02 42 1015.7
20200226173027 56 314 15.0 26.0 0.00 0.02 0.02 41 1015.7
20200226172027 57 317 19.0 36.0 0.00 0.02 0.02 40 1015.7
20200226171027 57 315 18.0 36.0 0.00 0.02 0.02 40 1015.3
20200226170027 57 312 19.0 33.0 0.00 0.02 0.02 39 1015.1
20200226165027 58 310 19.0 30.0 0.00 0.02 0.02 38 1015.0
20200226164027 58 314 14.0 25.0 0.00 0.02 0.02 37 1015.3
20200226163028 59 304 14.0 27.0 0.00 0.02 0.02 37 1015.4
20200226162027 59 300 10.0 26.0 0.00 0.02 0.02 36 1015.2
20200226161026 60 299 11.0 32.0 0.00 0.02 0.02 37 1015.3
20200226160027 60 302 11.0 24.0 0.00 0.02 0.02 37 1015.1
20200226155027 59 311 15.0 34.0 0.00 0.02 0.02 37 1014.8
20200226154027 59 318 16.0 34.0 0.00 0.02 0.02 36 1014.5
20200226153028 60 293 14.0 28.0 0.00 0.02 0.02 36 1014.3
20200226152026 60 311 14.0 29.0 0.00 0.02 0.02 37 1014.5
20200226151027 61 291 9.0 19.0 0.00 0.02 0.02 37 1014.7
20200226150027 61 284 11.0 25.0 0.00 0.02 0.02 37 1015.0
20200226145026 61 278 8.0 22.0 0.00 0.02 0.02 37 1015.1
20200226144027 61 277 7.0 18.0 0.00 0.02 0.02 39 1015.0
20200226143027 60 320 8.0 26.0 0.00 0.02 0.02 40 1015.0
20200226142027 59 292 12.0 31.0 0.00 0.02 0.02 40 1014.7
20200226141027 59 318 16.0 36.0 0.00 0.02 0.02 42 1014.5
20200226140027 59 308 12.0 26.0 0.00 0.02 0.02 41 1014.3
20200226135026 59 312 15.0 31.0 0.00 0.02 0.02 41 1013.8
20200226134027 59 302 11.0 33.0 0.00 0.02 0.02 41 1013.9
20200226133027 58 320 19.0 36.0 0.00 0.02 0.02 40 1013.9
20200226132028 58 313 18.0 37.0 0.00 0.02 0.02 40 1014.2
20200226131027 59 298 12.0 26.0 0.00 0.02 0.02 42 1014.3
20200226130028 59 312 14.0 33.0 0.00 0.02 0.02 42 1014.3
20200226125026 59 321 17.0 37.0 0.00 0.02 0.02 42 1014.0
20200226124027 59 311 13.0 34.0 0.00 0.02 0.02 41 1014.5
20200226123026 59 317 18.0 39.0 0.00 0.02 0.02 40 1014.2
20200226122026 59 312 14.0 29.0 0.00 0.02 0.02 40 1014.7
20200226121026 59 316 10.0 27.0 0.00 0.02 0.02 40 1014.4
20200226120026 59 298 13.0 30.0 0.00 0.02 0.02 41 1014.4
20200226115026 58 325 18.0 41.0 0.00 0.02 0.02 40 1014.4
20200226114027 58 324 25.0 48.0 0.00 0.02 0.02 40 1013.7
20200226113026 58 322 24.0 41.0 0.00 0.02 0.02 39 1014.3
20200226112026 58 316 20.0 53.0 0.00 0.02 0.02 39 1014.0
20200226111026 58 312 24.0 45.0 0.00 0.02 0.02 38 1013.8
20200226110027 57 314 27.0 50.0 0.00 0.02 0.02 39 1013.2
20200226105026 57 314 30.0 55.0 0.00 0.02 0.02 40 1013.1
20200226104026 56 315 29.0 55.0 0.00 0.02 0.02 41 1012.9
20200226103026 56 318 25.0 47.0 0.00 0.02 0.02 42 1013.1
20200226102027 56 315 20.0 33.0 0.00 0.02 0.02 44 1013.3
20200226101026 56 316 27.0 51.0 0.00 0.02 0.02 45 1013.4
20200226100026 55 318 26.0 47.0 0.00 0.02 0.02 45 1014.0
20200226095027 55 313 23.0 44.0 0.00 0.02 0.02 46 1013.8
20200226094027 54 309 19.0 39.0 0.00 0.02 0.02 47 1014.1
20200226093027 54 308 20.0 40.0 0.00 0.02 0.02 48 1014.0
20200226092027 53 317 20.0 39.0 0.00 0.02 0.02 48 1013.7
20200226091026 54 306 21.0 43.0 0.00 0.02 0.02 47 1013.4
20200226090027 54 309 23.0 44.0 0.00 0.02 0.02 47 1013.0
20200226085026 54 320 26.0 41.0 0.00 0.02 0.02 47 1012.8
20200226084028 53 318 29.0 54.0 0.00 0.02 0.02 47 1012.4
20200226083027 53 313 28.0 47.0 0.00 0.02 0.02 47 1012.4
20200226082027 53 310 24.0 42.0 0.00 0.02 0.02 47 1012.4
20200226081027 53 315 25.0 47.0 0.00 0.02 0.02 48 1012.4
20200226080027 53 312 25.0 39.0 0.00 0.02 0.02 48 1012.4
20200226075026 53 314 25.0 47.0 0.00 0.02 0.02 48 1012.3
20200226074026 53 314 26.0 49.0 0.00 0.02 0.02 48 1012.5
20200226073026 52 302 23.0 39.0 0.00 0.02 0.02 48 1012.3
20200226072027 52 307 23.0 41.0 0.00 0.02 0.02 49 1012.3
20200226071027 52 305 23.0 41.0 0.00 0.02 0.02 49 1012.3
20200226070027 52 147 26.0 46.0 0.00 0.02 0.02 50 1012.1
20200226065026 52 150 24.0 40.0 0.00 0.02 0.02 49 1012.0
20200226064027 52 153 22.0 41.0 0.00 0.02 0.02 49 1012.2
20200226063027 52 149 24.0 46.0 0.00 0.02 0.02 50 1012.1
20200226062026 52 145 26.0 44.0 0.00 0.02 0.02 49 1011.7
20200226061026 53 150 24.0 48.0 0.00 0.02 0.02 48 1011.7
20200226060026 53 145 28.0 47.0 0.00 0.02 0.02 47 1011.8
20200226055026 53 147 27.0 46.0 0.00 0.02 0.02 46 1011.4
20200226054026 53 144 26.0 45.0 0.00 0.02 0.02 45 1011.4
20200226053026 54 146 23.0 40.0 0.00 0.02 0.02 45 1011.6
20200226052026 55 146 26.0 46.0 0.00 0.02 0.02 40 1011.5
20200226051026 56 143 25.0 43.0 0.00 0.02 0.02 38 1011.3
20200226050026 56 146 27.0 49.0 0.00 0.02 0.02 37 1011.4
20200226045026 56 147 23.0 46.0 0.00 0.02 0.02 36 1011.4
20200226044027 56 149 27.0 50.0 0.00 0.02 0.02 36 1011.2
20200226043026 56 152 29.0 56.0 0.00 0.02 0.02 38 1010.9
20200226042026 56 157 27.0 49.0 0.00 0.02 0.02 41 1010.8
20200226041026 56 159 29.0 53.0 0.00 0.02 0.02 43 1010.7
20200226040026 56 153 30.0 51.0 0.00 0.02 0.02 42 1010.8
20200226035027 56 154 30.0 52.0 0.00 0.02 0.02 44 1011.0
20200226034026 56 153 29.0 54.0 0.00 0.02 0.02 43 1010.8
20200226033028 57 156 32.0 57.0 0.00 0.02 0.02 43 1011.0
20200226032026 56 155 30.0 52.0 0.00 0.02 0.02 46 1011.0
20200226031026 56 156 30.0 48.0 0.02 0.02 0.02 48 1011.2
20200226030027 56 154 30.0 52.0 0.02 0.02 0.02 50 1011.0
20200226025026 56 154 30.0 49.0 0.02 0.02 0.02 50 1011.4
20200226024026 56 154 28.0 46.0 0.02 0.02 0.02 50 1011.1
20200226023026 56 151 29.0 52.0 0.02 0.02 0.02 51 1011.7
20200226022026 56 156 25.0 50.0 0.02 0.02 0.02 51 1011.9
20200226021026 56 153 25.0 49.0 0.00 0.00 0.00 51 1012.0
20200226020029 56 153 20.0 39.0 0.00 0.00 0.00 51 1012.6
20200226015026 56 150 22.0 39.0 0.00 0.00 0.00 50 1012.7
20200226014026 57 150 20.0 39.0 0.00 0.00 0.00 50 1012.9
20200226013026 57 127 12.0 41.0 0.00 0.00 0.00 50 1013.1
20200226012026 58 137 14.0 35.0 0.00 0.00 0.00 49 1013.5
20200226011026 58 137 10.0 28.0 0.00 0.00 0.00 49 1013.6
20200226010026 58 113 7.0 19.0 0.00 0.00 0.00 49 1013.8
20200226005025 57 40 5.0 14.0 0.00 0.00 0.00 52 1013.9
20200226004033 57 70 5.0 11.0 0.00 0.00 0.00 53 1014.2
20200226003025 57 43 6.0 13.0 0.00 0.00 0.00 53 1014.0
20200226002026 58 100 6.0 16.0 0.00 0.00 0.00 51 1014.3
20200226001026 59 100 10.0 21.0 0.00 0.00 0.00 49 1014.1
20200226000029 59 117 11.0 27.0 0.00 0.00 0.00 48 1014.3
20200225235026 59 116 8.0 13.0 0.00 0.00 0.00 47 1014.3
20200225234026 60 117 9.0 27.0 0.00 0.00 0.00 46 1014.5
20200225233025 60 91 8.0 21.0 0.00 0.00 0.00 47 1014.7
20200225232025 60 38 6.0 19.0 0.00 0.00 0.00 45 1014.6
20200225231026 61 151 6.0 16.0 0.00 0.00 0.00 45 1014.7
20200225230026 61 124 6.0 16.0 0.00 0.00 0.00 44 1014.6
20200225225026 59 128 5.0 11.0 0.00 0.00 0.00 46 1014.8
20200225224026 59 110 4.0 11.0 0.00 0.00 0.00 48 1014.6
20200225223025 58 144 4.0 9.0 0.00 0.00 0.00 51 1014.6
20200225222025 59 164 4.0 10.0 0.00 0.00 0.00 51 1014.6
20200225221026 59 111 4.0 10.0 0.00 0.00 0.00 50 1014.4
20200225220025 59 77 3.0 8.0 0.00 0.00 0.00 53 1014.6
20200225215026 60 74 3.0 8.0 0.00 0.00 0.00 52 1014.8
20200225214025 60 106 3.0 10.0 0.00 0.00 0.00 52 1014.8
20200225213026 60 72 5.0 18.0 0.00 0.00 0.00 50 1014.7
20200225212026 58 35 3.0 9.0 0.00 0.00 0.00 59 1014.8
20200225211026 58 45 4.0 11.0 0.00 0.00 0.00 55 1014.9
20200225210027 58 59 3.0 8.0 0.00 0.00 0.00 58 1015.0
20200225205025 61 76 2.0 7.0 0.00 0.00 0.00 49 1014.9
20200225204025 62 107 3.0 10.0 0.00 0.00 0.00 44 1014.9